Time;durP1;ratioP1;P1;durP2;ratioP2;P2;SDS_P1;SDS_P2;PMS_P1;PMS_P2;Temp;Humidity;BMP_temperature;BMP_pressure;BME280_temperature;BME280_humidity;BME280_pressure;Samples;Min_cycle;Max_cycle;Signal;HPM_P1;HPM_P2
2021/12/31 00:01:20;;;;;;;13.10;3.65;;;;;;;11.59;100.00;101229.56;15291985;19;20466;-67
2021/12/31 00:06:22;;;;;;;10.90;2.92;;;;;;;11.61;100.00;101227.88;15297175;19;20034;-68
2021/12/31 00:11:24;;;;;;;9.20;2.78;;;;;;;11.60;100.00;101244.47;15292941;19;20034;-68
2021/12/31 00:16:26;;;;;;;8.50;2.88;;;;;;;11.47;100.00;101236.34;15293153;19;20597;-67
2021/12/31 00:21:36;;;;;;;12.32;3.05;;;;;;;11.50;100.00;101240.78;15288771;19;20018;-68
2021/12/31 00:26:37;;;;;;;5.70;1.95;;;;;;;11.53;100.00;101247.81;15291900;19;20021;-67
2021/12/31 00:31:39;;;;;;;11.40;2.90;;;;;;;11.47;100.00;101243.34;15291637;19;20070;-67
2021/12/31 00:36:45;;;;;;;9.25;3.10;;;;;;;11.44;100.00;101246.78;15292472;19;20018;-67
2021/12/31 00:41:47;;;;;;;7.65;2.80;;;;;;;11.56;100.00;101233.03;15289236;19;20082;-67
2021/12/31 00:46:49;;;;;;;12.65;3.33;;;;;;;11.53;100.00;101234.69;15290959;19;20030;-67
2021/12/31 00:51:52;;;;;;;13.85;3.67;;;;;;;11.54;100.00;101229.47;15288521;19;20014;-67
2021/12/31 00:56:59;;;;;;;13.27;3.60;;;;;;;11.52;100.00;101225.94;15289491;19;20427;-67
2021/12/31 01:02:04;;;;;;;13.77;3.92;;;;;;;11.52;99.84;101225.94;15294923;19;20020;-67
2021/12/31 01:07:07;;;;;;;12.57;3.10;;;;;;;11.53;99.76;101219.88;15292950;19;20507;-67
2021/12/31 01:12:10;;;;;;;10.65;3.28;;;;;;;11.50;100.00;101225.91;15304634;19;20546;-68
2021/12/31 01:17:15;;;;;;;9.70;3.03;;;;;;;11.62;98.86;101216.50;15302644;19;20078;-67
2021/12/31 01:22:24;;;;;;;9.68;2.90;;;;;;;11.57;99.41;101228.66;15301896;19;20010;-68
2021/12/31 01:27:26;;;;;;;6.93;2.43;;;;;;;11.58;99.35;101240.94;15304316;19;20023;-67
2021/12/31 01:32:30;;;;;;;8.73;2.78;;;;;;;11.59;99.30;101238.34;15302364;19;20078;-67
2021/12/31 01:37:32;;;;;;;7.80;2.83;;;;;;;11.63;98.44;101250.66;15303746;19;20019;-68
2021/12/31 01:42:36;;;;;;;9.00;2.50;;;;;;;11.58;98.81;101256.66;15301622;19;20669;-68
2021/12/31 01:52:59;;;;;;;7.38;2.28;;;;;;;11.53;98.48;101263.53;15298805;19;20014;-67
2021/12/31 01:58:03;;;;;;;9.15;2.30;;;;;;;11.58;97.63;101264.53;15299852;19;20013;-68
2021/12/31 02:03:05;;;;;;;9.70;2.33;;;;;;;11.66;97.64;101260.31;15305411;19;20010;-67
2021/12/31 02:08:07;;;;;;;12.30;2.28;;;;;;;11.65;97.45;101266.44;15302118;19;20015;-67
2021/12/31 02:13:09;;;;;;;6.43;2.15;;;;;;;11.68;96.75;101269.13;15298212;19;20022;-68
2021/12/31 02:18:11;;;;;;;8.48;2.47;;;;;;;11.72;97.03;101270.94;15299354;19;20370;-68
2021/12/31 02:23:24;;;;;;;9.20;2.33;;;;;;;11.69;96.68;101268.25;15294849;19;20082;-67
2021/12/31 02:28:27;;;;;;;7.88;2.25;;;;;;;11.67;97.82;101275.22;15300426;19;20089;-68
2021/12/31 02:33:33;;;;;;;10.88;2.20;;;;;;;11.71;96.51;101260.41;15297311;19;20034;-67
2021/12/31 02:38:35;;;;;;;5.85;2.05;;;;;;;11.72;96.75;101260.44;15296913;19;20081;-67
2021/12/31 02:43:38;;;;;;;9.43;2.38;;;;;;;11.83;96.26;101269.41;15295366;19;20552;-68
2021/12/31 02:48:39;;;;;;;9.43;2.88;;;;;;;11.81;96.07;101252.78;15298678;19;20010;-67
2021/12/31 02:53:41;;;;;;;6.85;2.42;;;;;;;11.81;96.18;101247.53;15295028;19;20006;-67
2021/12/31 02:58:43;;;;;;;8.75;2.42;;;;;;;11.73;96.73;101254.34;15297549;19;20083;-67
2021/12/31 03:03:47;;;;;;;8.18;2.20;;;;;;;11.82;96.09;101249.28;15301226;19;20505;-68
2021/12/31 03:08:51;;;;;;;13.15;2.28;;;;;;;11.87;95.60;101240.63;15298639;19;20482;-68
2021/12/31 03:13:55;;;;;;;7.22;2.10;;;;;;;11.77;96.57;101240.44;15294084;19;20010;-67
2021/12/31 03:18:57;;;;;;;12.63;2.63;;;;;;;11.75;96.58;101236.88;15295911;19;20099;-67
2021/12/31 03:24:00;;;;;;;8.82;2.20;;;;;;;11.85;95.96;101228.34;15291683;19;20022;-67
2021/12/31 03:29:04;;;;;;;9.82;2.20;;;;;;;11.88;95.70;101229.28;15297181;19;20122;-67
2021/12/31 03:34:06;;;;;;;9.40;2.13;;;;;;;11.88;95.73;101227.53;15291874;19;20014;-67
2021/12/31 03:39:08;;;;;;;11.27;2.67;;;;;;;11.92;95.42;101228.44;15292752;19;20480;-68
2021/12/31 03:44:09;;;;;;;11.68;2.63;;;;;;;11.95;95.33;101228.53;15291318;19;20546;-68
2021/12/31 03:49:11;;;;;;;9.23;2.75;;;;;;;11.93;95.73;101232.88;15294963;19;20014;-68
2021/12/31 03:54:13;;;;;;;6.30;2.38;;;;;;;11.96;95.56;101222.44;15291197;19;20391;-68
2021/12/31 03:59:14;;;;;;;10.98;2.58;;;;;;;11.93;95.73;101212.75;15293717;19;20066;-68
2021/12/31 04:04:16;;;;;;;11.68;3.20;;;;;;;11.94;96.10;101213.66;15295411;19;20109;-68
2021/12/31 04:09:17;;;;;;;7.32;2.80;;;;;;;11.90;96.61;101215.31;15295399;19;20023;-67
2021/12/31 04:14:19;;;;;;;5.97;2.50;;;;;;;12.09;95.02;101207.81;15291956;19;20016;-67
2021/12/31 04:19:21;;;;;;;7.35;3.53;;;;;;;12.22;93.89;101222.03;15292128;19;20077;-67
2021/12/31 04:24:51;;;;;;;6.57;3.00;;;;;;;12.06;95.27;101213.88;15288857;19;20104;-68
2021/12/31 04:29:52;;;;;;;10.05;2.70;;;;;;;12.10;95.11;101215.72;15292541;19;20033;-67
2021/12/31 04:34:53;;;;;;;6.20;2.85;;;;;;;12.06;95.45;101203.38;15288884;19;20082;-68
2021/12/31 04:39:55;;;;;;;9.20;3.55;;;;;;;12.11;94.61;101200.84;15290190;19;20078;-68
2021/12/31 04:44:57;;;;;;;8.82;2.92;;;;;;;12.15;95.07;101208.78;15295818;19;20546;-68
2021/12/31 04:49:59;;;;;;;6.68;3.33;;;;;;;12.17;94.95;101214.06;15307926;19;20039;-68
2021/12/31 04:55:00;;;;;;;6.57;2.95;;;;;;;12.10;95.37;101217.44;15302317;19;20104;-68
2021/12/31 05:00:04;;;;;;;10.45;3.78;;;;;;;12.08;95.49;101213.91;15303670;19;20018;-67
2021/12/31 05:05:06;;;;;;;6.97;3.00;;;;;;;12.08;94.93;101201.66;15304509;19;20011;-67
2021/12/31 05:10:08;;;;;;;5.30;2.83;;;;;;;12.18;94.32;101190.47;15306895;19;20764;-67
2021/12/31 05:15:10;;;;;;;9.65;3.25;;;;;;;12.13;94.70;101194.78;15300269;19;20015;-67
2021/12/31 05:20:12;;;;;;;7.40;3.10;;;;;;;12.17;94.45;101206.19;15303166;19;20373;-67
2021/12/31 05:25:14;;;;;;;11.43;2.85;;;;;;;12.22;94.19;101215.06;15300322;19;20088;-67
2021/12/31 05:30:15;;;;;;;7.70;2.70;;;;;;;12.24;94.16;101217.69;15304759;19;20074;-67
2021/12/31 05:35:17;;;;;;;6.57;2.90;;;;;;;12.22;93.95;101196.66;15298864;19;20018;-67
2021/12/31 05:40:19;;;;;;;7.80;2.58;;;;;;;12.22;94.27;101209.81;15301400;19;20440;-67
2021/12/31 05:45:21;;;;;;;7.05;3.20;;;;;;;12.15;94.43;101203.53;15298592;19;20031;-67
2021/12/31 05:50:32;;;;;;;5.57;2.88;;;;;;;12.16;94.73;101188.66;15303753;19;20021;-67
2021/12/31 05:55:34;;;;;;;6.32;3.00;;;;;;;12.14;94.32;101165.00;15302631;19;20377;-67
2021/12/31 06:00:35;;;;;;;8.75;3.20;;;;;;;12.14;94.68;101149.25;15299891;19;20081;-65
2021/12/31 06:05:37;;;;;;;7.18;2.85;;;;;;;12.07;94.86;101142.16;15306370;19;20038;-68
2021/12/31 06:10:41;;;;;;;7.45;3.05;;;;;;;12.11;95.01;101138.72;15302093;19;20078;-68
2021/12/31 06:15:43;;;;;;;10.75;3.58;;;;;;;12.16;94.14;101150.19;15300763;19;20010;-68
2021/12/31 06:20:45;;;;;;;7.63;3.10;;;;;;;12.13;94.48;101154.50;15296959;19;20482;-67
2021/12/31 06:25:47;;;;;;;6.65;3.03;;;;;;;12.07;95.06;101163.16;15301097;19;20082;-67
2021/12/31 06:30:48;;;;;;;6.90;3.45;;;;;;;12.13;94.61;101160.66;15300676;19;20011;-67
2021/12/31 06:35:50;;;;;;;6.68;2.97;;;;;;;12.06;95.04;101144.78;15300889;19;20035;-67
2021/12/31 06:40:51;;;;;;;9.52;3.13;;;;;;;12.02;95.40;101149.06;15297748;19;20474;-67
2021/12/31 06:45:53;;;;;;;6.38;2.85;;;;;;;12.01;95.50;101147.31;15300235;19;20007;-67
2021/12/31 06:50:55;;;;;;;9.40;2.85;;;;;;;12.05;95.00;101154.38;15298987;19;20677;-67
2021/12/31 06:55:56;;;;;;;7.07;2.53;;;;;;;12.09;94.48;101174.56;15299271;19;20074;-68
2021/12/31 07:00:58;;;;;;;7.53;2.85;;;;;;;12.04;94.81;101165.75;15295605;19;20468;-66
2021/12/31 07:06:00;;;;;;;4.85;2.08;;;;;;;12.07;94.14;101163.16;15300652;19;20030;-67
2021/12/31 07:11:02;;;;;;;6.50;2.30;;;;;;;12.15;93.65;101165.91;15296337;19;20070;-68
2021/12/31 07:16:04;;;;;;;4.82;2.10;;;;;;;12.16;92.90;101163.31;15296064;19;20034;-68
2021/12/31 07:21:05;;;;;;;5.07;2.03;;;;;;;12.22;92.78;101161.63;15294728;19;20538;-68
2021/12/31 07:26:07;;;;;;;6.20;2.30;;;;;;;12.19;92.45;101163.38;15296853;19;20031;-67
2021/12/31 07:31:12;;;;;;;4.90;2.13;;;;;;;12.25;92.02;101174.81;15297403;19;20510;-67
2021/12/31 07:36:14;;;;;;;5.15;1.92;;;;;;;12.29;91.70;101174.00;15296223;19;20035;-67
2021/12/31 07:41:16;;;;;;;5.78;2.00;;;;;;;12.29;91.22;101174.88;15293847;19;20110;-67
2021/12/31 07:46:18;;;;;;;5.82;2.08;;;;;;;12.37;90.60;101162.78;15294637;19;20086;-67
2021/12/31 07:51:19;;;;;;;2.55;1.65;;;;;;;12.42;90.12;101173.34;15294602;19;20027;-69
2021/12/31 07:56:21;;;;;;;5.18;1.67;;;;;;;12.31;90.63;101172.28;15293460;19;20125;-67
2021/12/31 08:01:23;;;;;;;7.03;1.67;;;;;;;12.35;90.31;101179.34;15292074;19;20015;-66
2021/12/31 08:06:25;;;;;;;5.72;1.70;;;;;;;12.43;89.83;101177.75;15297174;19;20905;-68
2021/12/31 08:11:27;;;;;;;5.32;1.70;;;;;;;12.37;89.96;101173.28;15290873;19;20560;-67
2021/12/31 08:16:29;;;;;;;6.43;1.90;;;;;;;12.41;89.10;101174.19;15290141;19;20014;-67
2021/12/31 08:21:30;;;;;;;6.20;1.55;;;;;;;12.42;88.96;101173.34;15288649;19;20014;-68
2021/12/31 08:26:32;;;;;;;3.20;1.48;;;;;;;12.44;88.83;101173.38;15291652;19;20073;-67
2021/12/31 08:31:35;;;;;;;5.03;1.70;;;;;;;12.41;88.48;101189.97;15291211;19;20674;-69
2021/12/31 08:36:37;;;;;;;3.85;1.55;;;;;;;12.33;89.18;101197.72;15292056;19;20027;-67
2021/12/31 08:41:40;;;;;;;4.93;1.55;;;;;;;12.32;89.31;101200.31;15286625;19;20017;-67
2021/12/31 08:46:49;;;;;;;3.35;1.92;;;;;;;12.32;89.16;101185.44;15281219;19;20365;-67
2021/12/31 08:51:51;;;;;;;5.03;2.10;;;;;;;12.29;89.75;101200.28;15287226;19;20010;-67
2021/12/31 08:56:53;;;;;;;3.95;2.35;;;;;;;12.20;90.74;101222.00;15290445;19;20018;-67
2021/12/31 09:01:55;;;;;;;4.55;1.98;;;;;;;12.19;90.67;101221.13;15289851;19;20477;-67
2021/12/31 09:06:57;;;;;;;3.50;1.85;;;;;;;12.19;90.06;101210.63;15290621;19;20034;-68
2021/12/31 09:11:59;;;;;;;4.82;2.05;;;;;;;12.20;90.37;101211.50;15286773;19;20021;-67
2021/12/31 09:17:01;;;;;;;4.03;2.08;;;;;;;12.20;90.16;101212.41;15289423;19;20034;-65
2021/12/31 09:22:04;;;;;;;6.55;2.50;;;;;;;12.18;90.16;101202.72;15279875;19;20006;-68
2021/12/31 09:27:06;;;;;;;3.90;2.15;;;;;;;12.12;91.19;101197.38;15283702;19;20110;-68
2021/12/31 09:32:07;;;;;;;5.93;2.33;;;;;;;12.11;91.24;101192.97;15296749;19;20102;-68
2021/12/31 09:37:10;;;;;;;7.05;2.40;;;;;;;12.07;90.82;101189.41;15303837;19;20426;-69
2021/12/31 09:42:12;;;;;;;5.35;2.20;;;;;;;12.04;90.80;101199.88;15301654;19;20015;-68
2021/12/31 09:47:18;;;;;;;4.95;2.38;;;;;;;11.97;91.25;101214.59;15303373;19;20022;-69
2021/12/31 09:52:21;;;;;;;9.38;2.60;;;;;;;11.97;91.56;101237.34;15301646;19;20086;-72
2021/12/31 09:57:22;;;;;;;6.97;2.13;;;;;;;12.02;90.67;101238.31;15298674;19;20488;-69
2021/12/31 10:02:33;;;;;;;6.00;2.40;;;;;;;12.01;91.14;101237.44;15299660;19;20003;-66
2021/12/31 10:07:42;;;;;;;6.75;2.40;;;;;;;11.99;91.33;101243.50;15302560;19;20015;-65
2021/12/31 10:12:52;;;;;;;7.97;2.33;;;;;;;12.02;91.16;101240.94;15299755;19;20015;-66
2021/12/31 10:17:54;;;;;;;5.80;2.03;;;;;;;12.05;90.85;101240.97;15299404;19;20018;-66
2021/12/31 10:23:13;;;;;;;11.60;2.40;;;;;;;12.09;90.19;101248.06;15293910;19;20434;-66
2021/12/31 10:28:17;;;;;;;6.63;2.47;;;;;;;12.06;90.40;101234.88;15218683;19;20025;-66
2021/12/31 10:33:39;;;;;;;6.00;2.10;;;;;;;12.08;90.02;101233.16;15192264;19;20475;-66
2021/12/31 10:38:43;;;;;;;5.15;2.17;;;;;;;12.17;90.04;101245.56;15187682;19;20051;-66
2021/12/31 10:43:45;;;;;;;6.13;2.25;;;;;;;12.14;90.29;101222.75;15189857;19;20031;-68
2021/12/31 10:48:50;;;;;;;5.50;1.90;;;;;;;12.16;89.38;101236.81;15190487;19;20508;-68
2021/12/31 10:53:54;;;;;;;4.05;1.83;;;;;;;12.11;90.15;101230.59;15190769;19;20082;-67
2021/12/31 10:59:03;;;;;;;7.72;2.63;;;;;;;12.05;90.09;101227.84;15191501;19;20014;-68
2021/12/31 11:04:05;;;;;;;6.63;2.00;;;;;;;12.14;89.86;101222.75;15194716;19;20549;-68
2021/12/31 11:09:08;;;;;;;6.82;2.25;;;;;;;12.02;89.98;101212.97;15196218;19;20034;-68
2021/12/31 11:14:11;;;;;;;3.83;1.90;;;;;;;12.11;89.44;101216.59;15181156;19;20006;-67
2021/12/31 11:19:15;;;;;;;6.78;2.00;;;;;;;12.11;89.38;101214.84;15187064;19;20085;-67
2021/12/31 11:24:27;;;;;;;8.07;1.90;;;;;;;12.15;89.43;101236.78;15179233;19;20018;-68
2021/12/31 11:29:39;;;;;;;5.75;2.17;;;;;;;12.15;89.25;101224.53;15185693;19;20831;-67
2021/12/31 11:34:40;;;;;;;3.63;1.90;;;;;;;12.06;89.82;101218.25;15183373;19;20010;-68
2021/12/31 11:39:42;;;;;;;3.83;1.88;;;;;;;12.09;89.33;101219.19;15185230;19;20021;-68
2021/12/31 11:45:06;;;;;;;4.95;1.95;;;;;;;12.17;89.40;101207.09;15182704;19;20018;-68
2021/12/31 11:50:29;;;;;;;4.25;2.08;;;;;;;12.05;89.39;101190.25;15183218;19;20018;-67
2021/12/31 11:55:44;;;;;;;9.55;2.55;;;;;;;12.19;89.05;101194.88;15176277;19;20098;-67
2021/12/31 12:00:45;;;;;;;6.68;2.22;;;;;;;12.13;90.00;101180.75;15181521;19;20036;-66
2021/12/31 12:05:47;;;;;;;6.20;2.67;;;;;;;12.05;90.01;101177.97;15187994;19;20732;-67
2021/12/31 12:10:49;;;;;;;7.97;2.95;;;;;;;12.18;89.04;101156.34;15183255;19;20018;-68
2021/12/31 12:15:51;;;;;;;8.13;2.70;;;;;;;12.15;89.96;101145.78;15182212;19;20837;-67
2021/12/31 12:20:53;;;;;;;9.65;2.80;;;;;;;12.16;90.31;101121.31;15181685;19;20026;-69
2021/12/31 12:25:54;;;;;;;5.38;2.40;;;;;;;12.06;91.52;101124.66;15179439;19;20018;-67
2021/12/31 12:31:05;;;;;;;7.53;3.00;;;;;;;11.95;91.71;101113.97;15182874;19;20542;-67
2021/12/31 12:36:07;;;;;;;7.13;2.83;;;;;;;11.91;92.22;101113.88;15184567;19;20022;-67
2021/12/31 12:41:09;;;;;;;6.85;2.83;;;;;;;11.93;92.48;101122.66;15181165;19;20094;-67
2021/12/31 12:46:13;;;;;;;8.18;2.70;;;;;;;11.93;92.60;101117.44;15183501;19;20007;-67
2021/12/31 12:51:25;;;;;;;7.20;2.80;;;;;;;11.89;92.72;101116.47;15178213;19;20469;-67
2021/12/31 12:56:26;;;;;;;7.70;2.97;;;;;;;11.80;92.79;101119.81;15173605;19;20701;-68
2021/12/31 13:01:41;;;;;;;8.15;2.70;;;;;;;11.83;92.33;101109.38;15176102;19;20902;-67
2021/12/31 13:07:07;;;;;;;5.72;2.40;;;;;;;11.82;92.93;101122.47;15200301;19;20022;-68
2021/12/31 13:12:15;;;;;;;7.60;2.85;;;;;;;11.80;92.74;101132.94;15196870;19;20633;-68
2021/12/31 13:17:22;;;;;;;12.82;3.80;;;;;;;11.58;96.11;101146.50;15198004;19;20018;-66
2021/12/31 13:35:26;;;;;;;10.25;4.10;;;;;;;11.07;100.00;101150.75;15108207;19;20025;-68
2021/12/31 13:41:02;;;;;;;11.93;4.22;;;;;;;10.97;100.00;101149.66;14995039;19;2004250;-68
2021/12/31 13:52:59;;;;;;;9.75;4.35;;;;;;;10.89;100.00;101153.88;15108493;19;20015;-70
2021/12/31 13:58:14;;;;;;;8.68;4.40;;;;;;;10.80;100.00;101162.41;15003651;19;20029;-70
2021/12/31 14:03:25;;;;;;;13.05;6.00;;;;;;;10.82;100.00;101170.28;14945065;19;20549;-66
2021/12/31 14:08:42;;;;;;;10.00;4.50;;;;;;;10.74;100.00;101176.25;14915521;19;20025;-68
2021/12/31 14:13:59;;;;;;;13.00;6.72;;;;;;;10.82;100.00;101178.16;14894429;19;21042;-67
2021/12/31 14:19:03;;;;;;;10.20;4.85;;;;;;;10.85;100.00;101186.09;14926564;19;20839;-68
2021/12/31 14:24:12;;;;;;;10.63;4.55;;;;;;;10.76;100.00;101195.53;14893851;19;20526;-67
2021/12/31 14:29:17;;;;;;;11.50;4.97;;;;;;;10.73;100.00;101205.94;14930307;19;20018;-68
2021/12/31 14:34:23;;;;;;;12.52;5.57;;;;;;;10.68;100.00;101204.91;14916842;19;20014;-70
2021/12/31 14:39:39;;;;;;;14.07;5.78;;;;;;;10.70;100.00;101211.06;15001625;19;20030;-69
2021/12/31 14:44:54;;;;;;;9.18;4.97;;;;;;;10.68;100.00;101219.75;15097127;19;20015;-68
2021/12/31 14:50:14;;;;;;;9.90;4.88;;;;;;;10.66;100.00;101209.25;15102980;19;20109;-68
2021/12/31 14:55:22;;;;;;;11.50;4.68;;;;;;;10.61;100.00;101218.72;15067848;19;20540;-67
2021/12/31 15:07:34;;;;;;;28.52;8.27;;;;;;;10.64;100.00;101220.53;14781842;19;20522;-68
2021/12/31 15:13:02;;;;;;;30.70;9.48;;;;;;;10.66;100.00;101226.66;14909705;19;21013;-67
2021/12/31 15:18:04;;;;;;;15.70;7.18;;;;;;;10.63;100.00;101245.84;15104141;19;21068;-68
2021/12/31 15:23:06;;;;;;;9.93;4.85;;;;;;;10.68;100.00;101248.56;15179120;19;20014;-67
2021/12/31 15:28:08;;;;;;;15.77;6.47;;;;;;;10.68;100.00;101259.91;15177954;19;20356;-69
2021/12/31 15:33:09;;;;;;;17.48;6.35;;;;;;;10.71;100.00;101274.84;15178557;19;20014;-68
2021/12/31 15:38:11;;;;;;;10.85;4.50;;;;;;;10.75;100.00;101298.50;15174102;19;20018;-68
2021/12/31 15:43:14;;;;;;;12.20;5.88;;;;;;;10.73;100.00;101289.75;15180429;19;20031;-70
2021/12/31 15:48:16;;;;;;;13.30;5.50;;;;;;;10.75;100.00;101289.78;15178651;19;20014;-68
2021/12/31 15:53:17;;;;;;;10.60;5.35;;;;;;;10.72;100.00;101303.69;15164346;19;20006;-69
2021/12/31 15:58:19;;;;;;;13.30;5.65;;;;;;;10.65;100.00;101288.66;15174424;19;20094;-68
2021/12/31 16:03:21;;;;;;;11.60;5.60;;;;;;;10.69;100.00;101289.59;15180365;19;20027;-67
2021/12/31 16:08:24;;;;;;;13.98;4.60;;;;;;;10.63;100.00;101295.59;15178458;19;20351;-68
2021/12/31 16:13:27;;;;;;;11.45;5.00;;;;;;;10.70;100.00;101302.72;15169927;19;20015;-68
2021/12/31 16:18:32;;;;;;;12.60;4.75;;;;;;;10.76;100.00;101313.38;15169915;19;20409;-69
2021/12/31 16:23:34;;;;;;;13.30;5.43;;;;;;;10.80;100.00;101311.72;15167893;19;20029;-68
2021/12/31 16:28:36;;;;;;;15.68;5.50;;;;;;;10.82;100.00;101320.50;15171610;19;20030;-68
2021/12/31 16:33:38;;;;;;;11.52;4.72;;;;;;;10.86;100.00;101329.34;15169895;19;20426;-68
2021/12/31 16:38:41;;;;;;;13.85;5.05;;;;;;;10.86;100.00;101338.06;15175711;19;20018;-68
2021/12/31 16:43:42;;;;;;;11.18;4.32;;;;;;;10.85;100.00;101352.00;15181916;19;20014;-67
2021/12/31 16:48:44;;;;;;;11.68;4.13;;;;;;;10.85;100.00;101362.47;15188547;19;20043;-67
2021/12/31 16:53:46;;;;;;;8.15;4.35;;;;;;;10.86;100.00;101364.25;15185580;19;20011;-68
2021/12/31 16:58:48;;;;;;;13.10;4.95;;;;;;;10.84;100.00;101373.84;15187801;19;20071;-68
2021/12/31 17:03:49;;;;;;;26.75;9.15;;;;;;;10.82;100.00;101392.97;15185868;19;20027;-68
2021/12/31 17:08:51;;;;;;;13.88;6.07;;;;;;;10.82;100.00;101391.22;15178487;19;20581;-68
2021/12/31 17:13:53;;;;;;;15.55;6.28;;;;;;;10.82;100.00;101390.34;15177956;19;20025;-68
2021/12/31 17:18:55;;;;;;;21.25;7.95;;;;;;;10.83;100.00;101394.75;15180362;19;20026;-68
2021/12/31 17:24:00;;;;;;;10.60;5.72;;;;;;;10.85;100.00;101403.53;15177164;19;20276;-68
2021/12/31 17:29:02;;;;;;;15.30;6.07;;;;;;;10.73;100.00;101410.25;15180204;19;20018;-68
2021/12/31 17:34:04;;;;;;;10.60;5.72;;;;;;;10.78;100.00;101416.47;15175608;19;20074;-68
2021/12/31 17:39:06;;;;;;;20.80;6.22;;;;;;;10.87;100.00;101428.94;15179467;19;20319;-67
2021/12/31 17:44:08;;;;;;;18.48;6.80;;;;;;;10.85;100.00;101440.19;15175742;19;20649;-67
2021/12/31 17:49:10;;;;;;;17.92;5.90;;;;;;;10.91;100.00;101438.66;15178051;19;20021;-68
2021/12/31 17:54:27;;;;;;;15.63;6.15;;;;;;;10.89;100.00;101445.56;15144960;19;20018;-68
2021/12/31 18:05:24;;;;;;;15.10;6.13;;;;;;;10.86;100.00;101461.19;14819343;19;2004210;-68
2021/12/31 18:10:38;;;;;;;13.05;6.47;;;;;;;10.88;100.00;101474.34;14944741;19;21181;-68
2021/12/31 18:15:56;;;;;;;12.43;5.80;;;;;;;10.83;100.00;101483.81;15026000;19;20010;-69
2021/12/31 18:20:58;;;;;;;14.70;6.35;;;;;;;10.85;100.00;101482.13;14951964;19;20564;-68
2021/12/31 18:26:08;;;;;;;18.30;6.28;;;;;;;10.84;100.00;101485.56;14948473;19;20685;-69
2021/12/31 18:31:22;;;;;;;22.98;9.65;;;;;;;10.75;100.00;101500.22;14938723;19;20014;-68
2021/12/31 18:36:25;;;;;;;26.92;8.38;;;;;;;10.69;100.00;101501.75;14981931;19;20385;-64
2021/12/31 18:41:28;;;;;;;13.45;6.13;;;;;;;10.67;100.00;101509.56;14980724;19;20539;-69
2021/12/31 18:46:54;;;;;;;17.95;6.95;;;;;;;10.64;100.00;101514.72;14963435;19;20361;-67
2021/12/31 18:52:09;;;;;;;16.02;7.28;;;;;;;10.70;100.00;101520.13;14955442;19;20019;-67
2021/12/31 18:57:14;;;;;;;22.58;7.18;;;;;;;10.68;100.00;101524.44;15107609;19;20851;-68
2021/12/31 19:02:19;;;;;;;19.02;7.20;;;;;;;10.66;100.00;101539.25;14981626;19;20472;-69
2021/12/31 19:07:45;;;;;;;;;;;;;;;;;;;;;
2021/12/31 19:12:51;;;;;;;18.50;8.15;;;;;;;10.66;100.00;101536.63;15138574;19;20713;-67
2021/12/31 19:17:53;;;;;;;21.73;8.57;;;;;;;10.71;100.00;101544.63;15157823;19;21019;-67
2021/12/31 19:22:55;;;;;;;20.60;7.43;;;;;;;10.68;100.00;101553.25;15153872;19;20019;-67
2021/12/31 19:27:57;;;;;;;24.00;8.40;;;;;;;10.68;100.00;101552.38;15155382;19;20037;-66
2021/12/31 19:32:59;;;;;;;22.30;8.55;;;;;;;10.72;100.00;101555.13;15153958;19;20014;-67
2021/12/31 19:38:01;;;;;;;17.73;7.45;;;;;;;10.73;100.00;101554.31;15155821;19;20015;-67
2021/12/31 19:43:03;;;;;;;15.43;7.20;;;;;;;10.75;100.00;101562.22;15060916;19;20031;-67
2021/12/31 19:48:12;;;;;;;20.10;6.90;;;;;;;10.78;100.00;101559.66;15059389;19;20518;-66
2021/12/31 19:53:19;;;;;;;20.77;7.43;;;;;;;10.79;100.00;101578.06;15132977;19;20499;-66
2021/12/31 19:58:21;;;;;;;21.90;8.48;;;;;;;10.78;100.00;101578.88;15154155;19;21069;-67
2021/12/31 20:03:26;;;;;;;15.55;6.75;;;;;;;10.88;100.00;101592.25;15154247;19;20086;-68
2021/12/31 20:08:28;;;;;;;14.00;6.38;;;;;;;10.84;100.00;101591.28;15185104;19;20482;-68
2021/12/31 20:13:39;;;;;;;18.13;6.95;;;;;;;10.82;100.00;101598.19;15117870;19;20019;-66
2021/12/31 20:19:01;;;;;;;17.30;6.75;;;;;;;10.85;100.00;101611.38;15112294;19;20254;-69
2021/12/31 20:24:10;;;;;;;23.52;6.85;;;;;;;10.87;100.00;101620.19;15094231;19;21047;-68
2021/12/31 20:29:18;;;;;;;19.55;5.93;;;;;;;10.90;100.00;101624.59;15087982;19;20738;-68
2021/12/31 20:47:00;;;;;;;11.40;4.78;;;;;;;10.94;100.00;101644.81;14971487;19;20014;-68
2021/12/31 20:52:03;;;;;;;16.17;5.50;;;;;;;10.86;100.00;101651.59;15165591;19;20078;-66
2021/12/31 20:57:06;;;;;;;14.90;5.38;;;;;;;10.88;100.00;101658.63;15117809;19;20022;-67
2021/12/31 21:02:10;;;;;;;14.38;5.32;;;;;;;10.90;100.00;101664.81;15169242;19;20018;-65
2021/12/31 21:07:18;;;;;;;16.23;5.18;;;;;;;10.91;100.00;101665.69;15063511;19;20017;-66
2021/12/31 21:12:34;;;;;;;17.88;5.80;;;;;;;10.94;100.00;101660.53;14964159;19;20543;-66
2021/12/31 21:18:11;;;;;;;19.67;6.40;;;;;;;10.93;100.00;101666.66;14839477;19;20480;-66
2021/12/31 21:29:55;;;;;;;17.58;6.47;;;;;;;10.94;99.92;101697.22;14913331;19;20876;-66
2021/12/31 21:35:27;;;;;;;14.63;5.45;;;;;;;10.92;100.00;101699.81;15010780;19;20643;-66
2021/12/31 21:40:53;;;;;;;15.48;5.50;;;;;;;10.90;100.00;101721.56;14987465;19;20354;-63
2021/12/31 21:46:42;;;;;;;18.88;6.13;;;;;;;10.92;100.00;101719.91;14906877;19;20529;-64
2021/12/31 21:51:51;;;;;;;18.33;6.15;;;;;;;10.87;100.00;101725.00;14955408;19;20581;-65
2021/12/31 21:57:08;;;;;;;19.77;6.63;;;;;;;10.81;100.00;101721.28;15064629;19;20025;-66
2021/12/31 22:02:28;;;;;;;17.77;6.15;;;;;;;10.83;100.00;101717.88;14968561;19;20506;-65
2021/12/31 22:07:50;;;;;;;19.63;6.45;;;;;;;10.97;99.54;101731.38;15045746;19;20366;-67
2021/12/31 22:13:18;;;;;;;17.60;6.40;;;;;;;10.89;99.89;101741.63;14927195;19;20305;-66
2021/12/31 22:18:58;;;;;;;31.83;10.23;;;;;;;10.85;100.00;101747.63;14921760;19;20022;-65
2021/12/31 22:24:04;;;;;;;37.22;10.48;;;;;;;10.90;100.00;101747.75;14858556;19;20560;-65
2021/12/31 22:29:07;;;;;;;25.23;9.55;;;;;;;10.93;99.85;101753.13;14912273;19;20101;-65
2021/12/31 22:34:46;;;;;;;27.90;8.23;;;;;;;10.88;99.84;101754.69;14896005;19;20566;-67
2021/12/31 22:39:59;;;;;;;15.75;7.05;;;;;;;10.87;100.00;101763.38;14972710;19;20053;-66
2021/12/31 22:45:03;;;;;;;17.20;7.25;;;;;;;10.93;99.90;101769.72;14987646;19;21104;-66
2021/12/31 22:50:28;;;;;;;24.50;11.70;;;;;;;10.90;100.00;101768.72;14876428;19;2004204;-65
2021/12/31 22:56:02;;;;;;;22.42;7.32;;;;;;;10.96;100.00;101774.19;14918012;19;20862;-66
2021/12/31 23:01:27;;;;;;;17.63;7.47;;;;;;;10.88;100.00;101781.78;14879949;19;20038;-64
2021/12/31 23:06:30;;;;;;;34.70;16.30;;;;;;;10.93;100.00;101785.44;14907548;19;20654;-66
2021/12/31 23:12:09;;;;;;;;;;;;;;;;;;;;;
2021/12/31 23:17:44;;;;;;;23.15;11.85;;;;;;;10.93;100.00;101776.72;14851955;19;20018;-66
2021/12/31 23:23:02;;;;;;;26.23;11.30;;;;;;;10.89;100.00;101793.16;14930118;19;20308;-65
2021/12/31 23:28:19;;;;;;;22.95;9.30;;;;;;;10.91;100.00;101799.34;15015956;19;21020;-66
2021/12/31 23:34:05;;;;;;;;;;;;;;;;;;;;;
2021/12/31 23:39:34;;;;;;;24.13;11.50;;;;;;;10.91;100.00;101808.09;14867267;19;20451;-67
2021/12/31 23:44:41;;;;;;;26.30;9.55;;;;;;;10.87;100.00;101806.22;14853968;19;20975;-67
2021/12/31 23:49:48;;;;;;;28.35;11.50;;;;;;;10.82;100.00;101813.03;14938677;19;20935;-67
